createdAt,value
2022-10-01T00:00:52.436Z,986.3
2022-10-01T00:01:54.299Z,986.28
2022-10-01T00:02:55.928Z,986.28
2022-10-01T00:03:57.617Z,986.29
2022-10-01T00:04:59.356Z,986.31
2022-10-01T00:06:01.081Z,986.33
2022-10-01T00:07:02.818Z,986.25
2022-10-01T00:08:04.546Z,986.26
2022-10-01T00:09:06.293Z,986.26
2022-10-01T00:10:08.020Z,986.25
2022-10-01T00:11:09.763Z,986.31
2022-10-01T00:12:11.479Z,986.29
2022-10-01T00:13:13.229Z,986.3
2022-10-01T00:14:14.993Z,986.23
2022-10-01T00:15:16.701Z,986.23
2022-10-01T00:16:18.475Z,986.22
2022-10-01T00:17:20.173Z,986.22
2022-10-01T00:18:21.928Z,986.19
2022-10-01T00:19:23.625Z,986.21
2022-10-01T00:20:25.370Z,986.2
2022-10-01T00:21:27.106Z,986.19
2022-10-01T00:22:28.841Z,986.2
2022-10-01T00:23:30.573Z,986.12
2022-10-01T00:24:32.331Z,986.18
2022-10-01T00:25:34.084Z,986.17
2022-10-01T00:26:35.765Z,986.14
2022-10-01T00:27:37.560Z,986.07
2022-10-01T00:28:39.248Z,986.08
2022-10-01T00:29:40.994Z,986.08
2022-10-01T00:30:42.716Z,986.07
2022-10-01T00:31:44.519Z,986
2022-10-01T00:32:46.187Z,986.06
2022-10-01T00:33:47.911Z,986.03
2022-10-01T00:34:49.644Z,985.98
2022-10-01T00:35:51.371Z,985.96
2022-10-01T00:36:53.107Z,985.97
2022-10-01T00:37:54.897Z,985.89
2022-10-01T00:38:56.585Z,985.87
2022-10-01T00:39:58.319Z,985.87
2022-10-01T00:41:00.053Z,985.86
2022-10-01T00:42:01.785Z,985.87
2022-10-01T00:43:03.521Z,985.84
2022-10-01T00:44:05.279Z,985.76
2022-10-01T00:45:06.980Z,985.83
2022-10-01T00:46:08.797Z,985.9
2022-10-01T00:47:10.560Z,985.83
2022-10-01T00:48:12.185Z,985.81
2022-10-01T00:49:13.919Z,985.8
2022-10-01T00:50:15.689Z,985.85
2022-10-01T00:51:17.385Z,985.81
2022-10-01T00:52:19.157Z,985.85
2022-10-01T00:53:20.866Z,985.79
2022-10-01T00:54:22.585Z,985.81
2022-10-01T00:55:24.321Z,985.81
2022-10-01T00:56:26.068Z,985.77
2022-10-01T00:57:27.790Z,985.79
2022-10-01T00:58:29.531Z,985.74
2022-10-01T00:59:31.294Z,985.78
2022-10-01T01:00:33.006Z,985.75
2022-10-01T01:01:35.118Z,985.74
2022-10-01T01:02:36.530Z,985.72
2022-10-01T01:03:38.194Z,985.69
2022-10-01T01:04:39.930Z,985.74
2022-10-01T01:05:41.724Z,985.7
2022-10-01T01:06:43.399Z,985.71
2022-10-01T01:07:45.137Z,985.73
2022-10-01T01:08:46.885Z,985.71
2022-10-01T01:09:48.601Z,985.73
2022-10-01T01:10:50.340Z,985.73
2022-10-01T01:11:52.067Z,985.73
2022-10-01T01:12:53.806Z,985.68
2022-10-01T01:13:55.541Z,985.68
2022-10-01T01:14:57.263Z,985.66
2022-10-01T01:15:59.071Z,985.67
2022-10-01T01:17:00.740Z,985.65
2022-10-01T01:18:02.498Z,985.64
2022-10-01T01:19:04.238Z,985.66
2022-10-01T01:20:05.973Z,985.57
2022-10-01T01:21:07.682Z,985.61
2022-10-01T01:22:09.403Z,985.55
2022-10-01T01:23:11.190Z,985.56
2022-10-01T01:24:12.874Z,985.53
2022-10-01T01:25:14.608Z,985.56
2022-10-01T01:26:16.361Z,985.51
2022-10-01T01:27:18.065Z,985.55
2022-10-01T01:28:19.865Z,985.47
2022-10-01T01:29:21.526Z,985.47
2022-10-01T01:30:23.267Z,985.47
2022-10-01T01:31:25.097Z,985.46
2022-10-01T01:32:26.739Z,985.36
2022-10-01T01:33:28.479Z,985.38
2022-10-01T01:34:30.216Z,985.39
2022-10-01T01:35:31.957Z,985.36
2022-10-01T01:36:33.703Z,985.36
2022-10-01T01:37:35.411Z,985.36
2022-10-01T01:38:37.157Z,985.31
2022-10-01T01:39:38.877Z,985.37
2022-10-01T01:40:40.609Z,985.33
2022-10-01T01:41:42.359Z,985.34
2022-10-01T01:42:44.133Z,985.31
2022-10-01T01:43:45.838Z,985.32
2022-10-01T01:44:47.555Z,985.34
2022-10-01T01:45:49.349Z,985.31
2022-10-01T01:46:51.024Z,985.26
2022-10-01T01:47:52.783Z,985.31
2022-10-01T01:48:54.513Z,985.34
2022-10-01T01:49:56.235Z,985.35
2022-10-01T01:50:57.958Z,985.32
2022-10-01T01:51:59.698Z,985.32
2022-10-01T01:53:01.466Z,985.28
2022-10-01T01:54:03.154Z,985.3
2022-10-01T01:55:04.884Z,985.23
2022-10-01T01:56:06.628Z,985.18
2022-10-01T01:57:08.355Z,985.24
2022-10-01T01:58:10.111Z,985.23
2022-10-01T01:59:11.831Z,985.18
2022-10-01T02:00:13.573Z,985.19
2022-10-01T02:01:15.365Z,985.25
2022-10-01T02:02:17.150Z,985.1
2022-10-01T02:03:18.789Z,985.16
2022-10-01T02:04:20.537Z,985.13
2022-10-01T02:05:22.240Z,985.05
2022-10-01T02:06:23.970Z,985.09
2022-10-01T02:07:25.742Z,985.13
2022-10-01T02:08:27.438Z,985.09
2022-10-01T02:09:29.166Z,985.08
2022-10-01T02:10:30.913Z,985.07
2022-10-01T02:11:32.923Z,985.05
2022-10-01T02:12:34.361Z,985.05
2022-10-01T02:13:36.104Z,985.06
2022-10-01T02:14:37.831Z,985.07
2022-10-01T02:15:39.613Z,985.08
2022-10-01T02:16:41.294Z,985.09
2022-10-01T02:17:43.066Z,985
2022-10-01T02:18:44.774Z,985.06
2022-10-01T02:19:46.545Z,984.99
2022-10-01T02:20:48.229Z,985.04
2022-10-01T02:21:49.975Z,985.09
2022-10-01T02:22:51.717Z,984.99
2022-10-01T02:23:53.441Z,985.01
2022-10-01T02:24:55.179Z,985.02
2022-10-01T02:25:56.912Z,985.04
2022-10-01T02:26:58.652Z,985.01
2022-10-01T02:28:00.421Z,985
2022-10-01T02:29:02.106Z,984.98
2022-10-01T02:30:03.877Z,984.96
2022-10-01T02:31:05.696Z,985
2022-10-01T02:32:07.338Z,985
2022-10-01T02:33:09.074Z,984.91
2022-10-01T02:34:12.733Z,984.84
2022-10-01T02:35:12.532Z,984.85
2022-10-01T02:36:14.257Z,984.85
2022-10-01T02:37:15.992Z,984.83
2022-10-01T02:38:17.712Z,984.87
2022-10-01T02:39:19.517Z,984.82
2022-10-01T02:40:21.192Z,984.81
2022-10-01T02:41:22.958Z,984.79
2022-10-01T02:42:24.673Z,984.74
2022-10-01T02:43:26.429Z,984.76
2022-10-01T02:44:28.148Z,984.74
2022-10-01T02:45:29.956Z,984.74
2022-10-01T02:46:31.615Z,984.69
2022-10-01T02:47:33.345Z,984.73
2022-10-01T02:48:35.083Z,984.72
2022-10-01T02:49:36.828Z,984.75
2022-10-01T02:50:38.536Z,984.71
2022-10-01T02:51:40.297Z,984.81
2022-10-01T02:52:41.997Z,984.7
2022-10-01T02:53:43.722Z,984.7
2022-10-01T02:54:45.493Z,984.69
2022-10-01T02:55:47.249Z,984.66
2022-10-01T02:56:49.872Z,984.68
2022-10-01T02:57:50.702Z,984.61
2022-10-01T02:58:52.396Z,984.62
2022-10-01T02:59:54.167Z,984.63
2022-10-01T03:00:55.855Z,984.64
2022-10-01T03:01:57.706Z,984.64
2022-10-01T03:02:59.509Z,984.61
2022-10-01T03:04:01.074Z,984.59
2022-10-01T03:05:02.817Z,984.57
2022-10-01T03:06:04.593Z,984.53
2022-10-01T03:07:06.288Z,984.52
2022-10-01T03:08:08.000Z,984.53
2022-10-01T03:09:09.749Z,984.52
2022-10-01T03:10:11.537Z,984.56
2022-10-01T03:11:13.213Z,984.63
2022-10-01T03:12:14.947Z,984.56
2022-10-01T03:13:16.684Z,984.6
2022-10-01T03:14:18.450Z,984.6
2022-10-01T03:15:20.164Z,984.59
2022-10-01T03:16:21.988Z,984.62
2022-10-01T03:17:23.628Z,984.67
2022-10-01T03:18:25.364Z,984.65
2022-10-01T03:19:27.096Z,984.62
2022-10-01T03:20:28.815Z,984.67
2022-10-01T03:21:30.995Z,984.69
2022-10-01T03:22:32.299Z,984.65
2022-10-01T03:23:34.032Z,984.62
2022-10-01T03:24:35.798Z,984.63
2022-10-01T03:25:37.529Z,984.63
2022-10-01T03:26:39.230Z,984.62
2022-10-01T03:27:41.013Z,984.6
2022-10-01T03:28:42.715Z,984.64
2022-10-01T03:29:44.449Z,984.58
2022-10-01T03:30:46.201Z,984.6
2022-10-01T03:31:47.980Z,984.56
2022-10-01T03:32:49.652Z,984.51
2022-10-01T03:33:51.367Z,984.48
2022-10-01T03:34:53.101Z,984.56
2022-10-01T03:35:54.822Z,984.42
2022-10-01T03:36:56.665Z,984.43
2022-10-01T03:37:58.315Z,984.4
2022-10-01T03:39:00.170Z,984.44
2022-10-01T03:40:01.772Z,984.43
2022-10-01T03:41:03.513Z,984.47
2022-10-01T03:42:05.256Z,984.43
2022-10-01T03:43:07.000Z,984.42
2022-10-01T03:44:08.714Z,984.43
2022-10-01T03:45:10.452Z,984.37
2022-10-01T03:46:12.264Z,984.35
2022-10-01T03:47:13.925Z,984.34
2022-10-01T03:48:15.646Z,984.34
2022-10-01T03:49:17.389Z,984.33
2022-10-01T03:50:19.120Z,984.34
2022-10-01T03:51:20.843Z,984.37
2022-10-01T03:52:22.587Z,984.34
2022-10-01T03:53:24.317Z,984.33
2022-10-01T03:54:26.052Z,984.33
2022-10-01T03:55:27.784Z,984.3
2022-10-01T03:56:29.561Z,984.31
2022-10-01T03:57:31.255Z,984.33
2022-10-01T03:58:33.012Z,984.29
2022-10-01T03:59:34.714Z,984.28
2022-10-01T04:00:36.465Z,984.25
2022-10-01T04:01:38.606Z,984.26
2022-10-01T04:02:40.035Z,984.28
2022-10-01T04:03:41.662Z,984.28
2022-10-01T04:04:43.413Z,984.27
2022-10-01T04:05:45.131Z,984.28
2022-10-01T04:06:46.867Z,984.27
2022-10-01T04:07:48.586Z,984.25
2022-10-01T04:08:50.333Z,984.31
2022-10-01T04:09:52.189Z,984.3
2022-10-01T04:10:53.804Z,984.27
2022-10-01T04:11:55.532Z,984.28
2022-10-01T04:12:57.270Z,984.33
2022-10-01T04:13:59.009Z,984.32
2022-10-01T04:15:00.758Z,984.27
2022-10-01T04:16:02.529Z,984.29
2022-10-01T04:17:04.199Z,984.24
2022-10-01T04:18:05.949Z,984.14
2022-10-01T04:19:07.678Z,984.2
2022-10-01T04:20:09.397Z,984.2
2022-10-01T04:21:11.142Z,984.16
2022-10-01T04:22:12.889Z,984.17
2022-10-01T04:23:14.655Z,984.14
2022-10-01T04:24:16.341Z,984.12
2022-10-01T04:25:18.117Z,984.1
2022-10-01T04:26:19.818Z,984.09
2022-10-01T04:27:21.563Z,984.02
2022-10-01T04:28:23.414Z,984.01
2022-10-01T04:29:25.009Z,983.97
2022-10-01T04:30:26.748Z,983.99
2022-10-01T04:31:28.596Z,983.87
2022-10-01T04:32:30.217Z,983.92
2022-10-01T04:33:31.943Z,983.95
2022-10-01T04:34:33.686Z,983.9
2022-10-01T04:35:35.418Z,984
2022-10-01T04:36:37.151Z,983.96
2022-10-01T04:37:38.884Z,983.94
2022-10-01T04:38:40.682Z,983.92
2022-10-01T04:39:42.351Z,983.91
2022-10-01T04:40:44.120Z,983.91
2022-10-01T04:41:45.813Z,983.86
2022-10-01T04:42:47.562Z,983.83
2022-10-01T04:43:49.284Z,983.81
2022-10-01T04:44:51.025Z,983.76
2022-10-01T04:45:52.753Z,983.8
2022-10-01T04:46:54.580Z,983.78
2022-10-01T04:47:56.255Z,983.78
2022-10-01T04:48:57.993Z,983.77
2022-10-01T04:49:59.682Z,983.74
2022-10-01T04:51:01.419Z,983.67
2022-10-01T04:52:03.161Z,983.52
2022-10-01T04:53:04.895Z,983.49
2022-10-01T04:54:06.633Z,983.33
2022-10-01T04:55:08.404Z,983.29
2022-10-01T04:56:10.129Z,983.31
2022-10-01T04:57:11.862Z,983.37
2022-10-01T04:58:13.578Z,983.36
2022-10-01T04:59:15.292Z,983.34
2022-10-01T05:00:17.027Z,983.32
2022-10-01T05:01:18.875Z,983.38
2022-10-01T05:02:20.549Z,983.36
2022-10-01T05:03:22.260Z,983.17
2022-10-01T05:04:23.970Z,983.26
2022-10-01T05:05:25.709Z,983.29
2022-10-01T05:06:27.431Z,983.4
2022-10-01T05:07:29.172Z,983.38
2022-10-01T05:08:30.909Z,983.36
2022-10-01T05:09:32.645Z,983.32
2022-10-01T05:10:34.420Z,983.33
2022-10-01T05:11:36.497Z,983.26
2022-10-01T05:12:37.846Z,983.29
2022-10-01T05:13:39.607Z,983.29
2022-10-01T05:14:41.341Z,983.27
2022-10-01T05:15:43.043Z,983.28
2022-10-01T05:16:44.884Z,983.29
2022-10-01T05:17:46.511Z,983.29
2022-10-01T05:18:48.250Z,983.3
2022-10-01T05:19:49.975Z,983.26
2022-10-01T05:20:51.732Z,983.34
2022-10-01T05:21:53.447Z,983.35
2022-10-01T05:22:55.178Z,983.23
2022-10-01T05:23:56.944Z,983.3
2022-10-01T05:24:58.665Z,983.28
2022-10-01T05:26:00.381Z,983.3
2022-10-01T05:27:02.120Z,983.33
2022-10-01T05:28:03.913Z,983.28
2022-10-01T05:29:05.606Z,983.39
2022-10-01T05:30:07.313Z,983.36
2022-10-01T05:31:09.169Z,983.39
2022-10-01T05:32:10.792Z,983.45
2022-10-01T05:33:12.556Z,983.41
2022-10-01T05:34:14.262Z,983.44
2022-10-01T05:35:15.978Z,983.45
2022-10-01T05:36:17.736Z,983.52
2022-10-01T05:37:19.489Z,983.47
2022-10-01T05:38:21.181Z,983.48
2022-10-01T05:39:22.923Z,983.51
2022-10-01T05:40:24.660Z,983.51
2022-10-01T05:41:26.425Z,983.47
2022-10-01T05:42:28.125Z,983.47
2022-10-01T05:43:29.853Z,983.54
2022-10-01T05:44:31.600Z,983.43
2022-10-01T05:45:33.402Z,983.57
2022-10-01T05:46:35.072Z,983.49
2022-10-01T05:47:36.809Z,983.51
2022-10-01T05:48:38.527Z,983.51
2022-10-01T05:49:40.264Z,983.46
2022-10-01T05:50:42.019Z,983.38
2022-10-01T05:51:43.771Z,983.4
2022-10-01T05:52:45.480Z,983.46
2022-10-01T05:53:50.355Z,983.45
2022-10-01T05:54:48.931Z,983.44
2022-10-01T05:55:50.680Z,983.43
2022-10-01T05:56:52.416Z,983.46
2022-10-01T05:57:54.182Z,983.51
2022-10-01T05:58:55.892Z,983.5
2022-10-01T05:59:57.624Z,983.43
2022-10-01T06:00:59.347Z,983.46
2022-10-01T06:02:01.250Z,983.38
2022-10-01T06:03:02.923Z,983.33
2022-10-01T06:04:04.560Z,983.35
2022-10-01T06:05:06.301Z,983.34
2022-10-01T06:06:08.021Z,983.37
2022-10-01T06:07:09.770Z,983.35
2022-10-01T06:08:11.487Z,983.37
2022-10-01T06:09:13.253Z,983.35
2022-10-01T06:10:15.035Z,983.37
2022-10-01T06:11:16.692Z,983.37
2022-10-01T06:12:19.956Z,983.36
2022-10-01T06:13:20.386Z,983.35
2022-10-01T06:14:21.902Z,983.33
2022-10-01T06:15:23.631Z,983.34
2022-10-01T06:16:25.495Z,983.37
2022-10-01T06:17:27.109Z,983.33
2022-10-01T06:18:28.839Z,983.34
2022-10-01T06:19:30.567Z,983.32
2022-10-01T06:20:32.304Z,983.25
2022-10-01T06:21:34.402Z,983.25
2022-10-01T06:22:35.805Z,983.2
2022-10-01T06:23:37.518Z,983.21
2022-10-01T06:24:39.246Z,983.23
2022-10-01T06:25:40.978Z,983.21
2022-10-01T06:26:42.729Z,983.14
2022-10-01T06:27:44.483Z,983.17
2022-10-01T06:28:46.204Z,983.08
2022-10-01T06:29:47.913Z,983.03
2022-10-01T06:30:49.646Z,982.98
2022-10-01T06:31:51.464Z,982.9
2022-10-01T06:32:53.113Z,982.88
2022-10-01T06:33:54.898Z,982.9
2022-10-01T06:34:56.599Z,982.92
2022-10-01T06:35:58.333Z,982.99
2022-10-01T06:37:00.089Z,983.02
2022-10-01T06:38:01.792Z,983.03
2022-10-01T06:39:03.535Z,983.05
2022-10-01T06:40:05.268Z,983.09
2022-10-01T06:41:06.994Z,983.12
2022-10-01T06:42:08.726Z,983.12
2022-10-01T06:43:10.481Z,983.09
2022-10-01T06:44:12.199Z,983.2
2022-10-01T06:45:13.957Z,983.22
2022-10-01T06:46:15.743Z,983.19
2022-10-01T06:47:17.400Z,983.17
2022-10-01T06:48:19.158Z,983.13
2022-10-01T06:49:20.896Z,983.12
2022-10-01T06:50:22.595Z,983.19
2022-10-01T06:51:24.325Z,983.1
2022-10-01T06:52:26.078Z,983.15
2022-10-01T06:53:27.811Z,983.2
2022-10-01T06:54:29.541Z,983.26
2022-10-01T06:55:31.278Z,983.17
2022-10-01T06:56:33.005Z,983.18
2022-10-01T06:57:34.722Z,983.18
2022-10-01T06:58:36.468Z,983.18
2022-10-01T06:59:38.205Z,983.15
2022-10-01T07:00:40.058Z,983.11
2022-10-01T07:01:41.759Z,983.21
2022-10-01T07:02:43.491Z,983.19
2022-10-01T07:03:45.138Z,983.17
2022-10-01T07:04:46.891Z,983.14
2022-10-01T07:05:48.647Z,983.07
2022-10-01T07:06:50.343Z,983.06
2022-10-01T07:07:52.080Z,982.99
2022-10-01T07:08:53.851Z,982.89
2022-10-01T07:09:55.538Z,982.79
2022-10-01T07:10:57.277Z,982.76
2022-10-01T07:11:59.012Z,982.74
2022-10-01T07:13:00.739Z,982.9
2022-10-01T07:14:02.476Z,982.91
2022-10-01T07:15:04.250Z,982.83
2022-10-01T07:16:06.069Z,982.78
2022-10-01T07:17:07.682Z,982.85
2022-10-01T07:18:09.608Z,982.78
2022-10-01T07:19:11.150Z,982.86
2022-10-01T07:20:12.891Z,982.89
2022-10-01T07:21:14.654Z,982.94
2022-10-01T07:22:16.365Z,982.91
2022-10-01T07:23:18.090Z,982.88
2022-10-01T07:24:19.844Z,982.84
2022-10-01T07:25:21.549Z,982.85
2022-10-01T07:26:23.324Z,982.81
2022-10-01T07:27:25.025Z,982.88
2022-10-01T07:28:26.790Z,982.9
2022-10-01T07:29:28.488Z,982.97
2022-10-01T07:30:30.244Z,982.92
2022-10-01T07:31:32.623Z,982.85
2022-10-01T07:32:33.710Z,982.82
2022-10-01T07:33:35.400Z,982.74
2022-10-01T07:34:37.151Z,982.69
2022-10-01T07:35:38.891Z,982.64
2022-10-01T07:36:40.626Z,982.64
2022-10-01T07:37:42.360Z,982.56
2022-10-01T07:38:44.091Z,982.52
2022-10-01T07:39:45.811Z,982.44
2022-10-01T07:40:47.597Z,982.32
2022-10-01T07:41:49.291Z,982.2
2022-10-01T07:42:51.027Z,982.24
2022-10-01T07:43:52.765Z,982.16
2022-10-01T07:44:54.496Z,982.08
2022-10-01T07:45:56.275Z,982.13
2022-10-01T07:46:58.035Z,982.2
2022-10-01T07:47:59.699Z,982.07
2022-10-01T07:49:01.428Z,982.02
2022-10-01T07:50:03.195Z,981.99
2022-10-01T07:51:04.933Z,981.95
2022-10-01T07:52:10.946Z,981.91
2022-10-01T07:53:08.361Z,982.16
2022-10-01T07:54:10.104Z,982.31
2022-10-01T07:55:11.826Z,982.4
2022-10-01T07:56:13.625Z,982.5
2022-10-01T07:57:15.304Z,982.63
2022-10-01T07:58:17.031Z,982.65
2022-10-01T07:59:18.787Z,982.68
2022-10-01T08:00:20.513Z,982.69
2022-10-01T08:01:22.322Z,982.67
2022-10-01T08:02:24.066Z,982.7
2022-10-01T08:03:25.719Z,982.8
2022-10-01T08:04:27.443Z,982.8
2022-10-01T08:05:29.206Z,982.84
2022-10-01T08:06:30.914Z,982.89
2022-10-01T08:07:32.722Z,982.92
2022-10-01T08:08:34.386Z,982.92
2022-10-01T08:09:36.143Z,982.99
2022-10-01T08:10:37.850Z,982.75
2022-10-01T08:11:39.578Z,982.65
2022-10-01T08:12:41.317Z,982.73
2022-10-01T08:13:43.105Z,982.63
2022-10-01T08:14:44.780Z,982.53
2022-10-01T08:15:46.513Z,982.49
2022-10-01T08:16:48.305Z,982.6
2022-10-01T08:17:49.995Z,982.52
2022-10-01T08:18:51.718Z,982.7
2022-10-01T08:19:53.447Z,982.66
2022-10-01T08:20:55.230Z,982.63
2022-10-01T08:21:56.924Z,982.61
2022-10-01T08:22:58.652Z,982.6
2022-10-01T08:24:00.431Z,982.4
2022-10-01T08:25:02.136Z,982.38
2022-10-01T08:26:03.922Z,982.24
2022-10-01T08:27:05.616Z,982
2022-10-01T08:28:07.456Z,981.89
2022-10-01T08:29:11.599Z,982.02
2022-10-01T08:30:10.861Z,982.27
2022-10-01T08:31:12.629Z,982.34
2022-10-01T08:32:14.311Z,982.57
2022-10-01T08:33:16.031Z,982.68
2022-10-01T08:34:17.718Z,982.8
2022-10-01T08:35:19.478Z,982.8
2022-10-01T08:36:21.180Z,982.86
2022-10-01T08:37:22.913Z,982.93
2022-10-01T08:38:24.694Z,982.88
2022-10-01T08:39:26.410Z,982.9
2022-10-01T08:40:28.119Z,982.93
2022-10-01T08:41:29.893Z,982.95
2022-10-01T08:42:31.570Z,983.01
2022-10-01T08:43:33.377Z,983.01
2022-10-01T08:44:35.042Z,983.08
2022-10-01T08:45:36.879Z,983
2022-10-01T08:46:38.535Z,983.1
2022-10-01T08:47:40.240Z,983.17
2022-10-01T08:48:42.016Z,983.09
2022-10-01T08:49:43.834Z,983.11
2022-10-01T08:50:45.452Z,983.14
2022-10-01T08:51:47.267Z,983.14
2022-10-01T08:52:48.900Z,983.21
2022-10-01T08:53:50.656Z,983.18
2022-10-01T08:54:52.405Z,983.19
2022-10-01T08:55:54.098Z,983.18
2022-10-01T08:56:55.878Z,983.15
2022-10-01T08:57:57.611Z,983.23
2022-10-01T08:58:59.386Z,983.2
2022-10-01T09:00:01.087Z,983.19
2022-10-01T09:01:02.948Z,983.17
2022-10-01T09:02:05.710Z,983.21
2022-10-01T09:03:06.352Z,983.16
2022-10-01T09:04:08.036Z,983.19
2022-10-01T09:05:09.748Z,983.18
2022-10-01T09:06:16.120Z,983.17
2022-10-01T09:07:18.345Z,983.26
2022-10-01T09:08:20.047Z,983.18
2022-10-01T09:09:21.781Z,983.19
2022-10-01T09:10:23.490Z,983.22
2022-10-01T09:11:25.220Z,983.21
2022-10-01T09:12:26.993Z,983.23
2022-10-01T09:13:28.680Z,983.25
2022-10-01T09:14:30.502Z,983.25
2022-10-01T09:15:32.160Z,983.19
2022-10-01T09:16:33.928Z,983.25
2022-10-01T09:17:35.625Z,983.2
2022-10-01T09:18:37.367Z,983.28
2022-10-01T09:19:40.844Z,983.25
2022-10-01T09:20:40.825Z,983.33
2022-10-01T09:21:42.596Z,983.36
2022-10-01T09:22:44.296Z,983.37
2022-10-01T09:23:46.025Z,983.38
2022-10-01T09:24:47.765Z,983.36
2022-10-01T09:25:49.498Z,983.4
2022-10-01T09:26:51.231Z,983.33
2022-10-01T09:27:53.050Z,983.39
2022-10-01T09:28:54.707Z,983.37
2022-10-01T09:29:56.471Z,983.4
2022-10-01T09:30:58.177Z,983.41
2022-10-01T09:31:59.946Z,983.35
2022-10-01T09:33:01.621Z,983.37
2022-10-01T09:34:03.360Z,983.36
2022-10-01T09:35:05.105Z,983.41
2022-10-01T09:36:06.892Z,983.3
2022-10-01T09:37:08.589Z,983.38
2022-10-01T09:38:10.296Z,983.4
2022-10-01T09:39:12.081Z,983.45
2022-10-01T09:40:13.781Z,983.43
2022-10-01T09:41:15.507Z,983.43
2022-10-01T09:42:17.255Z,983.42
2022-10-01T09:43:19.003Z,983.43
2022-10-01T09:44:20.710Z,983.4
2022-10-01T09:45:22.471Z,983.42
2022-10-01T09:46:24.267Z,983.42
2022-10-01T09:47:25.919Z,983.35
2022-10-01T09:48:27.650Z,983.41
2022-10-01T09:49:29.387Z,983.36
2022-10-01T09:50:31.118Z,983.4
2022-10-01T09:51:36.850Z,983.38
2022-10-01T09:52:34.628Z,983.4
2022-10-01T09:53:39.255Z,983.38
2022-10-01T09:54:43.232Z,983.48
2022-10-01T09:55:55.354Z,983.49
2022-10-01T09:57:16.897Z,983.45
2022-10-01T09:58:17.126Z,983.49
2022-10-01T09:59:18.928Z,983.46
2022-10-01T10:00:20.595Z,983.5
2022-10-01T10:01:22.374Z,983.43
2022-10-01T10:02:24.189Z,983.41
2022-10-01T10:03:25.912Z,983.42
2022-10-01T10:04:27.588Z,983.45
2022-10-01T10:05:29.288Z,983.4
2022-10-01T10:06:31.114Z,983.46
2022-10-01T10:07:32.746Z,983.36
2022-10-01T10:08:34.468Z,983.41
2022-10-01T10:09:36.229Z,983.46
2022-10-01T10:10:37.938Z,983.44
2022-10-01T10:11:39.668Z,983.47
2022-10-01T10:12:41.397Z,983.42
2022-10-01T10:13:43.157Z,983.45
2022-10-01T10:14:44.928Z,983.42
2022-10-01T10:15:46.748Z,983.42
2022-10-01T10:16:48.341Z,983.42
2022-10-01T10:17:50.092Z,983.44
2022-10-01T10:18:51.844Z,983.42
2022-10-01T10:19:53.574Z,983.44
2022-10-01T10:20:55.316Z,983.51
2022-10-01T10:21:57.055Z,983.49
2022-10-01T10:22:58.753Z,983.46
2022-10-01T10:24:00.489Z,983.48
2022-10-01T10:25:02.215Z,983.43
2022-10-01T10:26:03.975Z,983.5
2022-10-01T10:27:05.706Z,983.42
2022-10-01T10:28:07.480Z,983.48
2022-10-01T10:29:09.161Z,983.38
2022-10-01T10:30:10.943Z,983.37
2022-10-01T10:31:12.724Z,983.4
2022-10-01T10:32:14.352Z,983.4
2022-10-01T10:33:16.087Z,983.46
2022-10-01T10:34:17.843Z,983.45
2022-10-01T10:35:19.566Z,983.43
2022-10-01T10:36:21.295Z,983.39
2022-10-01T10:37:23.050Z,983.4
2022-10-01T10:38:24.768Z,983.45
2022-10-01T10:39:26.496Z,983.46
2022-10-01T10:40:29.751Z,983.47
2022-10-01T10:41:29.964Z,983.49
2022-10-01T10:42:31.733Z,983.52
2022-10-01T10:43:33.437Z,983.52
2022-10-01T10:44:35.274Z,983.5
2022-10-01T10:45:36.901Z,983.55
2022-10-01T10:46:42.843Z,983.52
2022-10-01T10:47:40.412Z,983.52
2022-10-01T10:48:42.175Z,983.51
2022-10-01T10:49:43.853Z,983.4
2022-10-01T10:50:44.653Z,983.47
2022-10-01T10:51:45.969Z,983.56
2022-10-01T10:52:47.691Z,983.56
2022-10-01T10:53:49.416Z,983.5
2022-10-01T10:54:51.158Z,983.53
2022-10-01T10:55:52.892Z,983.59
2022-10-01T10:57:04.919Z,983.64
2022-10-01T10:58:06.658Z,983.59
2022-10-01T10:59:08.394Z,983.55
2022-10-01T11:00:10.199Z,983.56
2022-10-01T11:01:11.899Z,983.62
2022-10-01T11:02:13.762Z,983.56
2022-10-01T11:03:15.347Z,983.57
2022-10-01T11:04:17.114Z,983.55
2022-10-01T11:05:18.826Z,983.53
2022-10-01T11:06:20.669Z,983.52
2022-10-01T11:07:22.294Z,983.6
2022-10-01T11:08:24.006Z,983.56
2022-10-01T11:09:25.736Z,983.61
2022-10-01T11:10:27.466Z,983.73
2022-10-01T11:11:29.200Z,983.6
2022-10-01T11:12:31.022Z,983.67
2022-10-01T11:13:32.657Z,983.63
2022-10-01T11:14:34.429Z,983.62
2022-10-01T11:15:36.198Z,983.62
2022-10-01T11:16:38.156Z,983.64
2022-10-01T11:17:39.612Z,983.64
2022-10-01T11:18:41.330Z,983.65
2022-10-01T11:19:43.101Z,983.64
2022-10-01T11:20:44.804Z,983.6
2022-10-01T11:21:46.540Z,983.61
2022-10-01T11:22:48.306Z,983.62
2022-10-01T11:23:50.005Z,983.59
2022-10-01T11:24:51.767Z,983.65
2022-10-01T11:25:53.492Z,983.63
2022-10-01T11:26:55.219Z,983.64
2022-10-01T11:27:57.042Z,983.6
2022-10-01T11:28:58.730Z,983.63
2022-10-01T11:30:00.425Z,983.65
2022-10-01T11:31:02.195Z,983.7
2022-10-01T11:32:03.918Z,983.67
2022-10-01T11:33:05.613Z,983.71
2022-10-01T11:34:07.354Z,983.74
2022-10-01T11:35:09.099Z,983.71
2022-10-01T11:36:10.878Z,983.75
2022-10-01T11:37:12.597Z,983.78
2022-10-01T11:38:14.322Z,983.74
2022-10-01T11:39:16.024Z,983.75
2022-10-01T11:40:17.763Z,983.72
2022-10-01T11:41:19.487Z,983.73
2022-10-01T11:42:21.236Z,983.75
2022-10-01T11:43:22.962Z,983.78
2022-10-01T11:44:24.756Z,983.74
2022-10-01T11:45:26.427Z,983.77
2022-10-01T11:46:28.256Z,983.78
2022-10-01T11:47:29.924Z,983.77
2022-10-01T11:48:31.636Z,983.82
2022-10-01T11:49:33.365Z,983.83
2022-10-01T11:50:39.133Z,983.95
2022-10-01T11:51:36.839Z,983.91
2022-10-01T11:52:38.602Z,983.92
2022-10-01T11:53:40.302Z,983.91
2022-10-01T11:54:42.113Z,983.92
2022-10-01T11:55:43.781Z,983.87
2022-10-01T11:56:45.512Z,983.9
2022-10-01T11:57:47.256Z,983.84
2022-10-01T11:58:48.978Z,983.9
2022-10-01T11:59:50.745Z,983.84
2022-10-01T12:00:52.463Z,983.89
2022-10-01T12:01:54.281Z,983.84
2022-10-01T12:02:55.932Z,983.9
2022-10-01T12:03:57.660Z,983.86
2022-10-01T12:04:59.416Z,983.81
2022-10-01T12:06:01.146Z,983.84
2022-10-01T12:07:02.885Z,983.85
2022-10-01T12:08:04.640Z,983.88
2022-10-01T12:09:06.328Z,983.85
2022-10-01T12:10:08.101Z,983.9
2022-10-01T12:11:30.538Z,983.87
2022-10-01T12:12:32.213Z,983.85
2022-10-01T12:13:33.188Z,983.94
2022-10-01T12:14:41.770Z,983.94
2022-10-01T12:15:42.666Z,983.92
2022-10-01T12:16:49.534Z,983.95
2022-10-01T12:17:51.235Z,983.94
2022-10-01T12:18:52.902Z,983.89
2022-10-01T12:19:54.631Z,983.91
2022-10-01T12:20:56.359Z,983.9
2022-10-01T12:21:58.129Z,983.88
2022-10-01T12:22:59.826Z,983.88
2022-10-01T12:24:03.032Z,983.84
2022-10-01T12:25:03.380Z,983.84
2022-10-01T12:26:07.624Z,983.85
2022-10-01T12:27:07.898Z,983.85
2022-10-01T12:28:08.643Z,983.85
2022-10-01T12:29:10.282Z,983.83
2022-10-01T12:30:12.129Z,983.79
2022-10-01T12:31:13.784Z,983.77
2022-10-01T12:32:15.496Z,983.74
2022-10-01T12:33:17.198Z,983.78
2022-10-01T12:34:18.995Z,983.78
2022-10-01T12:35:20.666Z,983.72
2022-10-01T12:36:22.383Z,983.79
2022-10-01T12:37:24.122Z,983.79
2022-10-01T12:38:25.862Z,983.78
2022-10-01T12:39:27.589Z,983.83
2022-10-01T12:40:29.326Z,983.87
2022-10-01T12:41:31.072Z,983.78
2022-10-01T12:42:32.810Z,983.78
2022-10-01T12:43:34.546Z,983.78
2022-10-01T12:44:36.283Z,983.79
2022-10-01T12:45:37.999Z,983.81
2022-10-01T12:46:39.872Z,983.8
2022-10-01T12:47:41.461Z,983.81
2022-10-01T12:48:43.214Z,983.8
2022-10-01T12:49:44.939Z,983.81
2022-10-01T12:50:46.668Z,983.83
2022-10-01T12:51:48.412Z,983.85
2022-10-01T12:52:50.147Z,983.74
2022-10-01T12:53:51.880Z,983.71
2022-10-01T12:54:53.617Z,983.66